createdAt,value
2016-06-01T00:00:28.210Z,19.08
2016-06-01T00:01:28.385Z,19.08
2016-06-01T00:02:28.419Z,19.11
2016-06-01T00:03:28.453Z,19.08
2016-06-01T00:04:28.471Z,19.08
2016-06-01T00:05:28.505Z,19.08
2016-06-01T00:06:28.523Z,19.08
2016-06-01T00:07:28.557Z,19.07
2016-06-01T00:08:29.122Z,19.06
2016-06-01T00:09:29.327Z,19.02
2016-06-01T00:10:28.665Z,19.11
2016-06-01T00:11:28.694Z,19.07
2016-06-01T00:12:28.753Z,19.11
2016-06-01T00:13:28.643Z,19.07
2016-06-01T00:14:28.858Z,19.08
2016-06-01T00:15:28.890Z,19.06
2016-06-01T00:16:28.776Z,19.08
2016-06-01T00:17:28.961Z,19.08
2016-06-01T00:18:28.988Z,19.14
2016-06-01T00:19:29.031Z,19.06
2016-06-01T00:20:29.055Z,19.08
2016-06-01T00:21:29.092Z,19.04
2016-06-01T00:22:29.130Z,19.06
2016-06-01T00:23:29.932Z,19.16
2016-06-01T00:24:30.330Z,19.11
2016-06-01T00:25:29.224Z,19.07
2016-06-01T00:26:29.243Z,19.07
2016-06-01T00:27:29.091Z,19.11
2016-06-01T00:28:29.283Z,19.07
2016-06-01T00:29:29.318Z,19.11
2016-06-01T00:30:29.336Z,19
2016-06-01T00:31:29.355Z,19.04
2016-06-01T00:32:29.389Z,19.11
2016-06-01T00:33:29.252Z,19.02
2016-06-01T00:34:29.442Z,19.08
2016-06-01T00:35:29.461Z,19.06
2016-06-01T00:36:29.495Z,19.04
2016-06-01T00:37:29.514Z,19.1
2016-06-01T00:38:30.156Z,19.04
2016-06-01T00:39:29.425Z,19.14
2016-06-01T00:40:29.600Z,19.08
2016-06-01T00:41:29.618Z,19.04
2016-06-01T00:42:29.480Z,19.1
2016-06-01T00:43:29.670Z,19.06
2016-06-01T00:44:29.688Z,19.07
2016-06-01T00:45:29.722Z,19.06
2016-06-01T00:46:29.600Z,19.11
2016-06-01T00:47:29.758Z,19.07
2016-06-01T00:48:29.793Z,19.08
2016-06-01T00:49:29.655Z,19.02
2016-06-01T00:50:29.830Z,19
2016-06-01T00:51:29.863Z,19.02
2016-06-01T00:52:29.882Z,18.87
2016-06-01T00:53:30.150Z,18.98
2016-06-01T00:54:29.793Z,18.85
2016-06-01T00:55:29.968Z,18.92
2016-06-01T00:56:30.002Z,19
2016-06-01T00:57:30.035Z,18.95
2016-06-01T00:58:30.038Z,18.92
2016-06-01T00:59:30.057Z,18.9
2016-06-01T01:00:30.090Z,18.91
2016-06-01T01:01:30.109Z,18.87
2016-06-01T01:02:30.143Z,18.9
2016-06-01T01:03:30.021Z,18.92
2016-06-01T01:04:30.195Z,18.91
2016-06-01T01:05:30.229Z,18.88
2016-06-01T01:06:30.247Z,18.88
2016-06-01T01:07:30.266Z,18.92
2016-06-01T01:08:30.394Z,18.85
2016-06-01T01:09:30.490Z,18.81
2016-06-01T01:10:30.461Z,18.92
2016-06-01T01:11:30.355Z,18.87
2016-06-01T01:12:30.389Z,18.78
2016-06-01T01:13:30.407Z,18.84
2016-06-01T01:14:30.441Z,18.78
2016-06-01T01:15:30.459Z,18.82
2016-06-01T01:16:30.494Z,18.84
2016-06-01T01:17:30.527Z,18.82
2016-06-01T01:18:30.546Z,18.82
2016-06-01T01:19:30.563Z,18.72
2016-06-01T01:20:30.597Z,18.82
2016-06-01T01:21:30.460Z,18.84
2016-06-01T01:22:30.635Z,18.78
2016-06-01T01:23:30.668Z,18.75
2016-06-01T01:24:30.593Z,18.82
2016-06-01T01:25:30.736Z,18.76
2016-06-01T01:26:30.738Z,18.8
2016-06-01T01:27:30.757Z,18.8
2016-06-01T01:28:30.791Z,18.76
2016-06-01T01:29:30.826Z,18.73
2016-06-01T01:30:30.843Z,18.76
2016-06-01T01:31:30.861Z,18.75
2016-06-01T01:32:30.895Z,18.72
2016-06-01T01:33:30.914Z,18.69
2016-06-01T01:34:30.792Z,18.67
2016-06-01T01:35:30.825Z,18.73
2016-06-01T01:36:30.890Z,18.7
2016-06-01T01:37:31.018Z,18.7
2016-06-01T01:38:31.646Z,18.69
2016-06-01T01:39:30.977Z,18.7
2016-06-01T01:40:31.089Z,18.73
2016-06-01T01:41:30.966Z,18.63
2016-06-01T01:42:30.985Z,18.66
2016-06-01T01:43:31.034Z,18.67
2016-06-01T01:44:31.194Z,18.63
2016-06-01T01:45:31.227Z,18.62
2016-06-01T01:46:31.246Z,18.65
2016-06-01T01:47:31.124Z,18.67
2016-06-01T01:48:31.298Z,18.65
2016-06-01T01:49:31.316Z,18.62
2016-06-01T01:50:31.194Z,18.66
2016-06-01T01:51:31.369Z,18.6
2016-06-01T01:52:31.402Z,18.6
2016-06-01T01:53:31.108Z,18.6
2016-06-01T01:54:31.454Z,18.62
2016-06-01T01:55:31.504Z,18.62
2016-06-01T01:56:31.491Z,18.62
2016-06-01T01:57:31.526Z,18.62
2016-06-01T01:58:31.559Z,18.62
2016-06-01T01:59:31.562Z,18.63
2016-06-01T02:00:31.440Z,18.58
2016-06-01T02:01:31.551Z,18.62
2016-06-01T02:02:31.648Z,18.5
2016-06-01T02:03:31.525Z,18.45
2016-06-01T02:04:31.701Z,18.6
2016-06-01T02:05:31.859Z,18.62
2016-06-01T02:06:31.815Z,18.44
2016-06-01T02:07:31.771Z,18.48
2016-06-01T02:08:32.320Z,18.5
2016-06-01T02:09:31.666Z,18.5
2016-06-01T02:10:31.873Z,18.47
2016-06-01T02:11:31.875Z,18.5
2016-06-01T02:12:31.737Z,18.47
2016-06-01T02:13:31.912Z,18.48
2016-06-01T02:14:31.789Z,18.42
2016-06-01T02:15:31.980Z,18.45
2016-06-01T02:16:31.998Z,18.41
2016-06-01T02:17:32.033Z,18.45
2016-06-01T02:18:32.050Z,18.42
2016-06-01T02:19:32.085Z,18.45
2016-06-01T02:20:32.133Z,18.44
2016-06-01T02:21:31.871Z,18.41
2016-06-01T02:22:32.249Z,18.36
2016-06-01T02:23:33.266Z,18.41
2016-06-01T02:24:32.208Z,18.42
2016-06-01T02:25:32.241Z,18.41
2016-06-01T02:26:32.274Z,18.39
2016-06-01T02:27:32.356Z,18.37
2016-06-01T02:28:32.343Z,18.35
2016-06-01T02:29:32.314Z,18.33
2016-06-01T02:30:32.349Z,18.33
2016-06-01T02:31:32.383Z,18.35
2016-06-01T02:32:32.087Z,18.35
2016-06-01T02:33:32.419Z,18.33
2016-06-01T02:34:32.296Z,18.33
2016-06-01T02:35:32.471Z,18.35
2016-06-01T02:36:32.490Z,18.29
2016-06-01T02:37:32.523Z,18.32
2016-06-01T02:38:32.635Z,18.29
2016-06-01T02:39:32.684Z,18.3
2016-06-01T02:40:32.437Z,18.29
2016-06-01T02:41:32.612Z,18.29
2016-06-01T02:42:32.647Z,18.27
2016-06-01T02:43:32.353Z,18.27
2016-06-01T02:44:32.386Z,18.29
2016-06-01T02:45:32.560Z,18.29
2016-06-01T02:46:32.813Z,18.26
2016-06-01T02:47:32.613Z,18.27
2016-06-01T02:48:32.803Z,18.29
2016-06-01T02:49:32.666Z,18.23
2016-06-01T02:50:32.808Z,18.25
2016-06-01T02:51:32.873Z,18.21
2016-06-01T02:52:32.751Z,18.23
2016-06-01T02:53:32.770Z,18.2
2016-06-01T02:54:33.100Z,18.27
2016-06-01T02:55:32.932Z,18.23
2016-06-01T02:56:32.888Z,18.18
2016-06-01T02:57:32.858Z,18.21
2016-06-01T02:58:33.032Z,18.21
2016-06-01T02:59:33.068Z,18.23
2016-06-01T03:00:33.085Z,18.25
2016-06-01T03:01:33.119Z,18.17
2016-06-01T03:02:33.154Z,18.23
2016-06-01T03:03:33.171Z,18.2
2016-06-01T03:04:33.205Z,18.2
2016-06-01T03:05:33.209Z,18.21
2016-06-01T03:06:33.242Z,18.21
2016-06-01T03:07:33.260Z,18.18
2016-06-01T03:08:33.779Z,18.23
2016-06-01T03:09:33.640Z,18.2
2016-06-01T03:10:33.347Z,18.18
2016-06-01T03:11:33.364Z,18.21
2016-06-01T03:12:33.384Z,18.2
2016-06-01T03:13:33.417Z,18.26
2016-06-01T03:14:33.451Z,18.15
2016-06-01T03:15:33.469Z,18.2
2016-06-01T03:16:33.488Z,18.25
2016-06-01T03:17:33.506Z,18.18
2016-06-01T03:18:33.540Z,18.18
2016-06-01T03:19:33.558Z,18.17
2016-06-01T03:20:33.592Z,18.18
2016-06-01T03:21:33.611Z,18.15
2016-06-01T03:22:33.488Z,18.17
2016-06-01T03:23:34.413Z,18.14
2016-06-01T03:24:33.697Z,18.12
2016-06-01T03:25:33.716Z,18.18
2016-06-01T03:26:33.733Z,18.18
2016-06-01T03:27:33.752Z,18.2
2016-06-01T03:28:33.786Z,18.18
2016-06-01T03:29:33.804Z,18.15
2016-06-01T03:30:33.682Z,18.26
2016-06-01T03:31:33.747Z,18.17
2016-06-01T03:32:33.875Z,18.17
2016-06-01T03:33:33.909Z,18.23
2016-06-01T03:34:33.770Z,18.18
2016-06-01T03:35:33.960Z,18.18
2016-06-01T03:36:34.151Z,18.17
2016-06-01T03:37:33.701Z,18.14
2016-06-01T03:38:35.219Z,18.23
2016-06-01T03:39:33.909Z,18.14
2016-06-01T03:40:33.927Z,18.14
2016-06-01T03:41:34.117Z,18.15
2016-06-01T03:42:34.136Z,18.2
2016-06-01T03:43:34.154Z,18.23
2016-06-01T03:44:34.189Z,18.12
2016-06-01T03:45:34.207Z,18.26
2016-06-01T03:46:34.224Z,18.21
2016-06-01T03:47:34.258Z,18.2
2016-06-01T03:48:34.277Z,18.15
2016-06-01T03:49:34.311Z,18.23
2016-06-01T03:50:34.344Z,18.21
2016-06-01T03:51:34.364Z,18.2
2016-06-01T03:52:34.380Z,18.21
2016-06-01T03:53:34.416Z,18.21
2016-06-01T03:54:34.606Z,18.2
2016-06-01T03:55:34.452Z,18.23
2016-06-01T03:56:34.486Z,18.18
2016-06-01T03:57:34.505Z,18.21
2016-06-01T03:58:34.538Z,18.2
2016-06-01T03:59:34.400Z,18.17
2016-06-01T04:00:34.590Z,18.21
2016-06-01T04:01:34.593Z,18.2
2016-06-01T04:02:34.471Z,18.23
2016-06-01T04:03:34.646Z,18.25
2016-06-01T04:04:34.680Z,18.2
2016-06-01T04:05:34.712Z,18.26
2016-06-01T04:06:34.716Z,18.26
2016-06-01T04:07:34.594Z,18.21
2016-06-01T04:08:34.909Z,18.29
2016-06-01T04:09:34.943Z,18.25
2016-06-01T04:10:34.821Z,18.23
2016-06-01T04:11:34.854Z,18.29
2016-06-01T04:12:34.889Z,18.23
2016-06-01T04:13:34.907Z,18.18
2016-06-01T04:14:34.925Z,18.26
2016-06-01T04:15:34.959Z,18.29
2016-06-01T04:16:35.009Z,18.3
2016-06-01T04:17:34.995Z,18.21
2016-06-01T04:18:34.858Z,18.26
2016-06-01T04:19:35.047Z,18.23
2016-06-01T04:20:34.911Z,18.26
2016-06-01T04:21:34.788Z,18.33
2016-06-01T04:22:35.119Z,18.26
2016-06-01T04:23:35.199Z,18.3
2016-06-01T04:24:35.249Z,18.32
2016-06-01T04:25:35.032Z,18.3
2016-06-01T04:26:35.239Z,18.3
2016-06-01T04:27:35.241Z,18.33
2016-06-01T04:28:35.260Z,18.29
2016-06-01T04:29:35.137Z,18.32
2016-06-01T04:30:35.313Z,18.29
2016-06-01T04:31:35.345Z,18.32
2016-06-01T04:32:35.364Z,18.33
2016-06-01T04:33:35.398Z,18.29
2016-06-01T04:34:35.416Z,18.32
2016-06-01T04:35:35.435Z,18.33
2016-06-01T04:36:35.765Z,18.42
2016-06-01T04:37:35.346Z,18.33
2016-06-01T04:38:36.334Z,18.37
2016-06-01T04:39:35.993Z,18.33
2016-06-01T04:40:35.573Z,18.35
2016-06-01T04:41:35.467Z,18.39
2016-06-01T04:42:35.469Z,18.39
2016-06-01T04:43:35.643Z,18.45
2016-06-01T04:44:35.678Z,18.47
2016-06-01T04:45:35.695Z,18.42
2016-06-01T04:46:35.558Z,18.45
2016-06-01T04:47:35.592Z,18.45
2016-06-01T04:48:35.766Z,18.51
2016-06-01T04:49:35.801Z,18.47
2016-06-01T04:50:35.662Z,18.41
2016-06-01T04:51:35.696Z,18.44
2016-06-01T04:52:35.715Z,18.51
2016-06-01T04:53:36.702Z,18.45
2016-06-01T04:54:35.922Z,18.54
2016-06-01T04:55:35.926Z,18.48
2016-06-01T04:56:35.975Z,18.47
2016-06-01T04:57:35.994Z,18.52
2016-06-01T04:58:36.027Z,18.5
2016-06-01T04:59:36.047Z,18.52
2016-06-01T05:00:36.064Z,18.47
2016-06-01T05:01:35.927Z,18.47
2016-06-01T05:02:36.116Z,18.47
2016-06-01T05:03:36.135Z,18.47
2016-06-01T05:04:36.169Z,18.6
2016-06-01T05:05:36.031Z,18.5
2016-06-01T05:06:36.205Z,18.48
2016-06-01T05:07:36.240Z,18.62
2016-06-01T05:08:37.071Z,18.57
2016-06-01T05:09:36.293Z,18.57
2016-06-01T05:10:36.341Z,18.63
2016-06-01T05:11:36.343Z,18.63
2016-06-01T05:12:36.362Z,18.57
2016-06-01T05:13:36.381Z,18.58
2016-06-01T05:14:36.414Z,18.62
2016-06-01T05:15:36.448Z,18.62
2016-06-01T05:16:36.467Z,18.65
2016-06-01T05:17:36.501Z,18.63
2016-06-01T05:18:36.362Z,18.62
2016-06-01T05:19:36.537Z,18.62
2016-06-01T05:20:36.556Z,18.63
2016-06-01T05:21:36.590Z,18.63
2016-06-01T05:22:36.623Z,18.58
2016-06-01T05:23:36.657Z,18.65
2016-06-01T05:24:36.504Z,18.65
2016-06-01T05:25:36.694Z,18.69
2016-06-01T05:26:36.556Z,18.72
2016-06-01T05:27:36.747Z,18.75
2016-06-01T05:28:36.764Z,18.67
2016-06-01T05:29:36.642Z,18.67
2016-06-01T05:30:36.661Z,18.7
2016-06-01T05:31:36.835Z,18.75
2016-06-01T05:32:36.854Z,18.67
2016-06-01T05:33:36.888Z,18.76
2016-06-01T05:34:36.905Z,18.73
2016-06-01T05:35:36.924Z,18.75
2016-06-01T05:36:37.161Z,18.66
2016-06-01T05:37:36.993Z,18.78
2016-06-01T05:38:37.838Z,18.7
2016-06-01T05:39:37.060Z,18.76
2016-06-01T05:40:37.062Z,18.73
2016-06-01T05:41:37.112Z,18.85
2016-06-01T05:42:36.974Z,18.8
2016-06-01T05:43:37.179Z,18.81
2016-06-01T05:44:37.167Z,18.88
2016-06-01T05:45:37.201Z,18.75
2016-06-01T05:46:37.220Z,18.91
2016-06-01T05:47:37.253Z,18.9
2016-06-01T05:48:37.272Z,18.91
2016-06-01T05:49:37.290Z,18.98
2016-06-01T05:50:37.153Z,18.92
2016-06-01T05:51:37.342Z,18.98
2016-06-01T05:52:37.361Z,19.04
2016-06-01T05:53:37.410Z,18.98
2016-06-01T05:54:37.647Z,19.1
2016-06-01T05:55:37.447Z,19.07
2016-06-01T05:56:37.465Z,19.16
2016-06-01T05:57:37.483Z,19.07
2016-06-01T05:58:37.533Z,19.06
2016-06-01T05:59:37.536Z,19.18
2016-06-01T06:00:37.570Z,19.19
2016-06-01T06:01:37.463Z,19.23
2016-06-01T06:02:37.606Z,19.21
2016-06-01T06:03:37.656Z,19.28
2016-06-01T06:04:37.674Z,19.29
2016-06-01T06:05:37.692Z,19.36
2016-06-01T06:06:37.710Z,19.43
2016-06-01T06:07:37.744Z,19.41
2016-06-01T06:08:38.497Z,19.4
2016-06-01T06:09:37.640Z,19.37
2016-06-01T06:10:37.815Z,19.44
2016-06-01T06:11:37.834Z,19.5
2016-06-01T06:12:37.868Z,19.48
2016-06-01T06:13:37.761Z,19.55
2016-06-01T06:14:37.920Z,19.47
2016-06-01T06:15:37.953Z,19.54
2016-06-01T06:16:38.003Z,19.47
2016-06-01T06:17:38.037Z,19.56
2016-06-01T06:18:37.867Z,19.68
2016-06-01T06:19:38.042Z,19.73
2016-06-01T06:20:38.076Z,19.69
2016-06-01T06:21:37.797Z,19.73
2016-06-01T06:22:37.972Z,19.8
2016-06-01T06:23:38.742Z,19.77
2016-06-01T06:24:38.290Z,19.73
2016-06-01T06:25:38.215Z,19.76
2016-06-01T06:26:38.233Z,19.84
2016-06-01T06:27:38.252Z,19.87
2016-06-01T06:28:38.129Z,19.81
2016-06-01T06:29:38.336Z,19.8
2016-06-01T06:30:38.322Z,19.84
2016-06-01T06:31:38.355Z,19.91
2016-06-01T06:32:38.405Z,19.88
2016-06-01T06:33:38.408Z,19.92
2016-06-01T06:34:38.427Z,19.87
2016-06-01T06:35:38.461Z,19.94
2016-06-01T06:36:38.526Z,19.95
2016-06-01T06:37:38.513Z,19.95
2016-06-01T06:38:39.437Z,19.95
2016-06-01T06:39:38.862Z,19.96
2016-06-01T06:40:38.583Z,19.99
2016-06-01T06:41:38.633Z,20.01
2016-06-01T06:42:38.652Z,20.02
2016-06-01T06:43:38.670Z,20.02
2016-06-01T06:44:38.688Z,20.06
2016-06-01T06:45:38.737Z,20.06
2016-06-01T06:46:38.771Z,20.1
2016-06-01T06:47:38.806Z,20.05
2016-06-01T06:48:38.651Z,20.02
2016-06-01T06:49:38.811Z,20.05
2016-06-01T06:50:38.845Z,20.08
2016-06-01T06:51:38.879Z,20.13
2016-06-01T06:52:38.928Z,20.16
2016-06-01T06:53:38.774Z,20.21
2016-06-01T06:54:38.917Z,20.11
2016-06-01T06:55:38.967Z,20.18
2016-06-01T06:56:38.861Z,20.11
2016-06-01T06:57:39.020Z,20.17
2016-06-01T06:58:38.882Z,20.18
2016-06-01T06:59:39.072Z,20.2
2016-06-01T07:00:39.105Z,20.24
2016-06-01T07:01:39.124Z,20.29
2016-06-01T07:02:38.986Z,20.23
2016-06-01T07:03:39.177Z,20.24
2016-06-01T07:04:39.211Z,20.26
2016-06-01T07:05:39.230Z,20.33
2016-06-01T07:06:39.263Z,20.31
2016-06-01T07:07:39.280Z,20.38
2016-06-01T07:08:39.988Z,20.26
2016-06-01T07:09:39.271Z,20.41
2016-06-01T07:10:39.352Z,20.32
2016-06-01T07:11:39.385Z,20.41
2016-06-01T07:12:39.404Z,20.41
2016-06-01T07:13:39.297Z,20.42
2016-06-01T07:14:39.471Z,20.35
2016-06-01T07:15:39.334Z,20.5
2016-06-01T07:16:39.508Z,20.43
2016-06-01T07:17:39.527Z,20.55
2016-06-01T07:18:39.560Z,20.47
2016-06-01T07:19:39.579Z,20.42
2016-06-01T07:20:39.613Z,20.41
2016-06-01T07:21:39.662Z,20.5
2016-06-01T07:22:39.665Z,20.42
2016-06-01T07:23:39.761Z,20.43
2016-06-01T07:24:40.483Z,20.54
2016-06-01T07:25:39.736Z,20.47
2016-06-01T07:26:39.801Z,20.52
2016-06-01T07:27:39.788Z,20.5
2016-06-01T07:28:39.822Z,20.58
2016-06-01T07:29:39.856Z,20.57
2016-06-01T07:30:39.717Z,20.57
2016-06-01T07:31:39.595Z,20.55
2016-06-01T07:32:39.786Z,20.52
2016-06-01T07:33:39.961Z,20.55
2016-06-01T07:34:39.978Z,20.51
2016-06-01T07:35:40.013Z,20.58
2016-06-01T07:36:40.078Z,20.57
2016-06-01T07:37:40.065Z,20.51
2016-06-01T07:38:40.723Z,20.59
2016-06-01T07:39:40.132Z,20.61
2016-06-01T07:40:39.979Z,20.61
2016-06-01T07:41:40.013Z,20.59
2016-06-01T07:42:40.032Z,20.59
2016-06-01T07:43:40.222Z,20.61
2016-06-01T07:44:40.240Z,20.67
2016-06-01T07:45:40.101Z,20.64
2016-06-01T07:46:40.292Z,20.62
2016-06-01T07:47:40.326Z,20.66
2016-06-01T07:48:40.345Z,20.69
2016-06-01T07:49:40.379Z,20.61
2016-06-01T07:50:40.396Z,20.66
2016-06-01T07:51:40.446Z,20.76
2016-06-01T07:52:40.464Z,20.64
2016-06-01T07:53:41.217Z,20.79
2016-06-01T07:54:40.361Z,20.76
2016-06-01T07:55:40.379Z,20.77
2016-06-01T07:56:40.553Z,20.74
2016-06-01T07:57:40.431Z,20.87
2016-06-01T07:58:40.481Z,20.84
2016-06-01T07:59:40.639Z,20.88
2016-06-01T08:00:40.659Z,20.89
2016-06-01T08:01:40.691Z,20.87
2016-06-01T08:02:40.569Z,20.88
2016-06-01T08:03:40.744Z,20.88
2016-06-01T08:04:40.763Z,20.85
2016-06-01T08:05:40.640Z,20.89
2016-06-01T08:06:40.814Z,20.84
2016-06-01T08:07:40.630Z,20.94
2016-06-01T08:08:40.836Z,20.94
2016-06-01T08:09:40.838Z,20.94
2016-06-01T08:10:40.700Z,20.94
2016-06-01T08:11:40.890Z,20.92
2016-06-01T08:12:40.924Z,20.88
2016-06-01T08:13:40.943Z,20.95
2016-06-01T08:15:01.290Z,20.94
2016-06-01T08:15:41.074Z,20.94
2016-06-01T08:16:41.107Z,20.95
2016-06-01T08:17:41.126Z,20.94
2016-06-01T08:18:41.003Z,20.97
2016-06-01T08:19:41.178Z,20.94
2016-06-01T08:20:41.212Z,20.97
2016-06-01T08:21:41.074Z,20.95
2016-06-01T08:22:41.265Z,20.97
2016-06-01T08:23:41.142Z,20.98
2016-06-01T08:24:42.550Z,20.99
2016-06-01T08:25:41.023Z,20.95
2016-06-01T08:26:41.368Z,20.95
2016-06-01T08:27:41.403Z,20.94
2016-06-01T08:28:41.420Z,20.97
2016-06-01T08:29:41.439Z,20.95
2016-06-01T08:30:41.473Z,20.92
2016-06-01T08:31:41.492Z,20.88
2016-06-01T08:32:41.525Z,20.92
2016-06-01T08:33:41.558Z,20.95
2016-06-01T08:34:41.594Z,20.89
2016-06-01T08:35:41.596Z,20.92
2016-06-01T08:36:41.630Z,20.87
2016-06-01T08:37:41.664Z,20.92
2016-06-01T08:38:41.729Z,20.84
2016-06-01T08:39:41.935Z,20.89
2016-06-01T08:40:41.735Z,20.84
2016-06-01T08:41:41.752Z,20.92
2016-06-01T08:42:41.802Z,20.82
2016-06-01T08:43:41.821Z,20.85
2016-06-01T08:44:41.839Z,20.84
2016-06-01T08:45:41.716Z,20.91
2016-06-01T08:46:41.891Z,20.84
2016-06-01T08:47:41.769Z,20.84
2016-06-01T08:48:41.944Z,20.87
2016-06-01T08:49:41.962Z,20.91
2016-06-01T08:50:41.995Z,20.87
2016-06-01T08:51:41.873Z,20.87
2016-06-01T08:52:42.048Z,20.89
2016-06-01T08:53:42.301Z,20.87
2016-06-01T08:54:42.132Z,20.76
2016-06-01T08:55:41.993Z,20.85
2016-06-01T08:56:45.199Z,20.79
2016-06-01T08:57:42.202Z,20.87
2016-06-01T08:58:42.220Z,20.79
2016-06-01T08:59:42.253Z,20.8
2016-06-01T09:00:43.429Z,20.8
2016-06-01T09:01:42.306Z,20.79
2016-06-01T09:02:42.184Z,20.73
2016-06-01T09:03:42.359Z,20.77
2016-06-01T09:04:42.361Z,20.8
2016-06-01T09:05:42.395Z,20.7
2016-06-01T09:06:42.445Z,20.77
2016-06-01T09:07:42.447Z,20.8
2016-06-01T09:08:42.325Z,20.73
2016-06-01T09:09:42.499Z,20.7
2016-06-01T09:10:42.752Z,20.69
2016-06-01T09:11:42.411Z,20.74
2016-06-01T09:12:42.586Z,20.79
2016-06-01T09:13:42.605Z,20.77
2016-06-01T09:14:42.638Z,20.74
2016-06-01T09:15:42.658Z,20.67
2016-06-01T09:16:42.716Z,20.64
2016-06-01T09:17:42.759Z,20.69
2016-06-01T09:18:42.816Z,20.64
2016-06-01T09:19:42.875Z,20.66
2016-06-01T09:20:42.916Z,20.66
2016-06-01T09:21:42.943Z,20.58
2016-06-01T09:22:42.985Z,20.62
2016-06-01T09:23:43.028Z,20.73
2016-06-01T09:24:42.929Z,20.64
2016-06-01T09:25:43.097Z,20.74
2016-06-01T09:26:43.118Z,20.7
2016-06-01T09:27:43.156Z,20.64
2016-06-01T09:28:43.176Z,20.64
2016-06-01T09:29:43.213Z,20.73
2016-06-01T09:30:43.110Z,20.73
2016-06-01T09:31:43.269Z,20.76
2016-06-01T09:32:43.290Z,20.82
2016-06-01T09:33:43.325Z,20.76
2016-06-01T09:34:43.359Z,20.74
2016-06-01T09:35:43.426Z,20.8
2016-06-01T09:36:44.398Z,20.8
2016-06-01T09:37:43.432Z,20.79
2016-06-01T09:38:43.451Z,20.77
2016-06-01T09:39:43.860Z,20.84
2016-06-01T09:40:43.503Z,20.76
2016-06-01T09:41:43.554Z,20.82
2016-06-01T09:42:43.604Z,20.84
2016-06-01T09:43:43.434Z,20.85
2016-06-01T09:44:43.469Z,20.91
2016-06-01T09:45:43.659Z,20.92
2016-06-01T09:46:43.678Z,20.85
2016-06-01T09:47:43.696Z,20.82
2016-06-01T09:48:43.731Z,20.88
2016-06-01T09:49:43.608Z,20.87
2016-06-01T09:50:43.782Z,20.84
2016-06-01T09:51:43.801Z,20.94
2016-06-01T09:52:43.679Z,20.95
2016-06-01T09:53:43.853Z,20.95
2016-06-01T09:54:44.105Z,20.98
2016-06-01T09:55:43.921Z,20.97
2016-06-01T09:56:43.923Z,20.89
2016-06-01T09:57:43.801Z,20.98
2016-06-01T09:58:43.991Z,20.97
2016-06-01T09:59:44.010Z,20.95
2016-06-01T10:00:44.028Z,21.04
2016-06-01T10:01:43.922Z,21.03
2016-06-01T10:02:44.081Z,21.07
2016-06-01T10:03:44.130Z,21.06
2016-06-01T10:04:44.148Z,21.09
2016-06-01T10:05:44.167Z,21.03
2016-06-01T10:06:44.200Z,21.1
2016-06-01T10:07:44.235Z,21.09
2016-06-01T10:08:44.268Z,20.97
2016-06-01T10:09:44.224Z,20.99
2016-06-01T10:10:44.321Z,21.06
2016-06-01T10:11:44.339Z,21.12
2016-06-01T10:12:44.374Z,21.14
2016-06-01T10:13:44.391Z,21.09
2016-06-01T10:14:44.425Z,21.22
2016-06-01T10:15:44.460Z,21.21
2016-06-01T10:16:44.462Z,21.28
2016-06-01T10:17:44.339Z,21.27
2016-06-01T10:18:44.514Z,21.24
2016-06-01T10:19:44.532Z,21.21
2016-06-01T10:20:44.598Z,21.34
2016-06-01T10:21:44.615Z,21.32
2016-06-01T10:22:44.634Z,21.34
2016-06-01T10:23:44.668Z,21.32
2016-06-01T10:24:45.249Z,21.46
2016-06-01T10:25:44.737Z,21.38
2016-06-01T10:26:44.739Z,21.4
2016-06-01T10:27:44.772Z,21.42
2016-06-01T10:28:44.806Z,21.44
2016-06-01T10:29:44.809Z,21.49
2016-06-01T10:30:44.687Z,21.5
2016-06-01T10:31:44.721Z,21.47
2016-06-01T10:32:44.895Z,21.46
2016-06-01T10:33:44.930Z,21.46
2016-06-01T10:34:44.964Z,21.52
2016-06-01T10:35:44.825Z,21.5
2016-06-01T10:36:44.844Z,21.53
2016-06-01T10:37:44.893Z,21.58
2016-06-01T10:38:44.912Z,21.52
2016-06-01T10:39:45.289Z,21.43
2016-06-01T10:40:45.291Z,21.49
2016-06-01T10:41:45.155Z,21.47
2016-06-01T10:42:45.172Z,21.46
2016-06-01T10:43:45.191Z,21.49
2016-06-01T10:44:45.224Z,21.43
2016-06-01T10:45:45.243Z,21.4
2016-06-01T10:46:45.276Z,21.4
2016-06-01T10:47:45.311Z,21.49
2016-06-01T10:48:45.173Z,21.44
2016-06-01T10:49:45.348Z,21.43
2016-06-01T10:50:45.226Z,21.4
2016-06-01T10:51:45.416Z,21.43
2016-06-01T10:52:45.434Z,21.34
2016-06-01T10:53:45.467Z,21.44
2016-06-01T10:54:45.767Z,21.31
2016-06-01T10:55:45.707Z,21.44
2016-06-01T10:56:45.257Z,21.43
2016-06-01T10:57:45.416Z,21.4
2016-06-01T10:58:45.606Z,21.4
2016-06-01T10:59:45.625Z,21.4
2016-06-01T11:00:45.659Z,21.35
2016-06-01T11:01:45.678Z,21.38
2016-06-01T11:02:45.710Z,21.27
2016-06-01T11:03:45.728Z,21.25
2016-06-01T11:04:45.763Z,21.37
2016-06-01T11:05:45.641Z,21.37
2016-06-01T11:06:45.830Z,21.32
2016-06-01T11:07:45.880Z,21.32
2016-06-01T11:08:45.883Z,21.22
2016-06-01T11:09:46.370Z,21.22
2016-06-01T11:10:45.779Z,21.27
2016-06-01T11:11:45.954Z,21.29
2016-06-01T11:12:45.987Z,21.29
2016-06-01T11:13:46.005Z,21.25
2016-06-01T11:14:46.040Z,21.27
2016-06-01T11:15:46.074Z,21.24
2016-06-01T11:16:45.935Z,21.22
2016-06-01T11:17:46.126Z,21.25
2016-06-01T11:18:45.988Z,21.29
2016-06-01T11:19:46.038Z,21.21
2016-06-01T11:20:46.212Z,21.22
2016-06-01T11:21:46.074Z,21.28
2016-06-01T11:22:46.248Z,21.28
2016-06-01T11:23:46.267Z,21.22
2016-06-01T11:24:46.848Z,21.25
2016-06-01T11:25:46.335Z,21.16
2016-06-01T11:26:46.353Z,21.24
2016-06-01T11:27:46.387Z,21.22
2016-06-01T11:28:46.421Z,21.27
2016-06-01T11:29:46.440Z,21.22
2016-06-01T11:30:46.458Z,21.22
2016-06-01T11:31:46.491Z,21.25
2016-06-01T11:32:46.525Z,21.14
2016-06-01T11:33:46.544Z,21.25
2016-06-01T11:34:46.562Z,21.19
2016-06-01T11:35:46.597Z,21.25
2016-06-01T11:36:46.631Z,21.17
2016-06-01T11:37:46.664Z,21.19
2016-06-01T11:38:46.683Z,21.19
2016-06-01T11:39:47.076Z,21.13
2016-06-01T11:40:46.594Z,21.21
2016-06-01T11:41:46.752Z,21.12
2016-06-01T11:42:46.787Z,21.14
2016-06-01T11:43:46.821Z,21.16
2016-06-01T11:44:46.839Z,21.22
2016-06-01T11:45:46.874Z,21.13
2016-06-01T11:46:49.907Z,21.24
2016-06-01T11:47:46.926Z,21.12
2016-06-01T11:48:46.788Z,21.19
2016-06-01T11:49:46.977Z,21.21
2016-06-01T11:50:47.012Z,21.17
2016-06-01T11:51:47.015Z,21.19
2016-06-01T11:52:46.892Z,21.16
2016-06-01T11:53:46.926Z,21.16
2016-06-01T11:54:46.975Z,21.22
2016-06-01T11:55:47.353Z,21.16
2016-06-01T11:56:47.153Z,21.16
2016-06-01T11:57:47.171Z,21.19
2016-06-01T11:58:47.205Z,21.16
2016-06-01T11:59:47.223Z,21.16
2016-06-01T12:00:47.117Z,21.21
2016-06-01T12:01:47.292Z,21.27
2016-06-01T12:02:47.309Z,21.24
2016-06-01T12:03:47.359Z,21.29
2016-06-01T12:04:47.378Z,21.27
2016-06-01T12:05:47.396Z,21.24
2016-06-01T12:06:47.429Z,21.17
2016-06-01T12:07:47.448Z,21.25
2016-06-01T12:08:47.342Z,21.22
2016-06-01T12:09:47.531Z,21.31
2016-06-01T12:10:47.799Z,21.24
2016-06-01T12:11:47.569Z,21.27
2016-06-01T12:12:47.586Z,21.24
2016-06-01T12:13:47.621Z,21.22
2016-06-01T12:14:47.639Z,21.25
2016-06-01T12:15:47.672Z,21.32
2016-06-01T12:16:47.566Z,21.32
2016-06-01T12:17:47.568Z,21.32
2016-06-01T12:18:47.587Z,21.35
2016-06-01T12:19:47.777Z,21.32
2016-06-01T12:20:50.654Z,21.32
2016-06-01T12:21:47.985Z,21.35
2016-06-01T12:22:47.848Z,21.27
2016-06-01T12:23:47.882Z,21.35
2016-06-01T12:24:47.806Z,21.34
2016-06-01T12:25:47.996Z,21.32
2016-06-01T12:26:47.952Z,21.29
2016-06-01T12:27:48.001Z,21.37
2016-06-01T12:28:47.880Z,21.29
2016-06-01T12:29:48.335Z,21.4
2016-06-01T12:30:48.087Z,21.34
2016-06-01T12:31:48.216Z,21.44
2016-06-01T12:32:48.156Z,21.4
2016-06-01T12:33:51.142Z,21.38
2016-06-01T12:34:48.223Z,21.38
2016-06-01T12:35:48.211Z,21.34
2016-06-01T12:36:48.228Z,21.38
2016-06-01T12:37:48.264Z,21.42
2016-06-01T12:38:48.281Z,21.44
2016-06-01T12:39:48.331Z,21.35
2016-06-01T12:40:48.334Z,21.38
2016-06-01T12:41:51.399Z,21.37
2016-06-01T12:42:48.402Z,21.31
2016-06-01T12:43:48.561Z,21.38
2016-06-01T12:44:48.454Z,21.32
2016-06-01T12:45:48.471Z,21.31
2016-06-01T12:46:48.506Z,21.32
2016-06-01T12:47:48.540Z,21.21
2016-06-01T12:48:48.590Z,21.32
2016-06-01T12:49:48.593Z,21.32
2016-06-01T12:50:48.454Z,21.24
2016-06-01T12:51:48.629Z,21.32
2016-06-01T12:52:48.663Z,21.19
2016-06-01T12:53:48.682Z,21.27
2016-06-01T12:54:49.293Z,21.25
2016-06-01T12:55:48.734Z,21.24